sensor_id;sensor_type;location;lat;lon;timestamp;P1;durP1;ratioP1;P2;durP2;ratioP2
38487;SDS011;57384;51.986;4.458;2022-10-31T00:01:26;0.52;;;0.10;;
38487;SDS011;57384;51.986;4.458;2022-10-31T00:04:12;0.75;;;0.08;;
38487;SDS011;57384;51.986;4.458;2022-10-31T00:06:57;2.17;;;0.10;;
38487;SDS011;57384;51.986;4.458;2022-10-31T00:09:41;5.20;;;0.13;;
38487;SDS011;57384;51.986;4.458;2022-10-31T00:12:25;1.55;;;0.10;;
38487;SDS011;57384;51.986;4.458;2022-10-31T00:15:10;2.22;;;0.10;;
38487;SDS011;57384;51.986;4.458;2022-10-31T00:17:54;0.80;;;0.20;;
38487;SDS011;57384;51.986;4.458;2022-10-31T00:20:38;1.00;;;0.10;;
38487;SDS011;57384;51.986;4.458;2022-10-31T00:23:30;2.10;;;0.17;;
38487;SDS011;57384;51.986;4.458;2022-10-31T00:26:15;0.43;;;0.10;;
38487;SDS011;57384;51.986;4.458;2022-10-31T00:28:59;0.60;;;0.10;;
38487;SDS011;57384;51.986;4.458;2022-10-31T00:31:47;0.70;;;0.10;;
38487;SDS011;57384;51.986;4.458;2022-10-31T00:34:31;1.38;;;0.20;;
38487;SDS011;57384;51.986;4.458;2022-10-31T00:37:15;2.33;;;0.20;;
38487;SDS011;57384;51.986;4.458;2022-10-31T00:40:03;1.88;;;0.17;;
38487;SDS011;57384;51.986;4.458;2022-10-31T00:42:50;1.17;;;0.10;;
38487;SDS011;57384;51.986;4.458;2022-10-31T00:45:37;0.65;;;0.10;;
38487;SDS011;57384;51.986;4.458;2022-10-31T00:48:21;2.90;;;0.20;;
38487;SDS011;57384;51.986;4.458;2022-10-31T00:51:05;0.70;;;0.10;;
38487;SDS011;57384;51.986;4.458;2022-10-31T00:53:53;1.80;;;0.10;;
38487;SDS011;57384;51.986;4.458;2022-10-31T00:59:22;1.75;;;0.20;;
38487;SDS011;57384;51.986;4.458;2022-10-31T01:04:53;1.70;;;0.10;;
38487;SDS011;57384;51.986;4.458;2022-10-31T01:07:38;0.98;;;0.20;;
38487;SDS011;57384;51.986;4.458;2022-10-31T01:10:25;2.55;;;0.20;;
38487;SDS011;57384;51.986;4.458;2022-10-31T01:13:09;0.60;;;0.10;;
38487;SDS011;57384;51.986;4.458;2022-10-31T01:15:54;0.82;;;0.10;;
38487;SDS011;57384;51.986;4.458;2022-10-31T01:18:39;1.35;;;0.20;;
38487;SDS011;57384;51.986;4.458;2022-10-31T01:24:11;1.10;;;0.10;;
38487;SDS011;57384;51.986;4.458;2022-10-31T01:26:55;0.98;;;0.10;;
38487;SDS011;57384;51.986;4.458;2022-10-31T01:29:42;0.40;;;0.10;;
38487;SDS011;57384;51.986;4.458;2022-10-31T01:32:35;1.85;;;0.28;;
38487;SDS011;57384;51.986;4.458;2022-10-31T01:35:19;0.73;;;0.10;;
38487;SDS011;57384;51.986;4.458;2022-10-31T01:38:06;0.50;;;0.10;;
38487;SDS011;57384;51.986;4.458;2022-10-31T01:40:50;2.28;;;0.20;;
38487;SDS011;57384;51.986;4.458;2022-10-31T01:43:51;0.43;;;0.10;;
38487;SDS011;57384;51.986;4.458;2022-10-31T01:46:40;1.17;;;0.28;;
38487;SDS011;57384;51.986;4.458;2022-10-31T01:49:49;0.80;;;0.10;;
38487;SDS011;57384;51.986;4.458;2022-10-31T01:52:46;0.98;;;0.20;;
38487;SDS011;57384;51.986;4.458;2022-10-31T01:55:37;1.25;;;0.10;;
38487;SDS011;57384;51.986;4.458;2022-10-31T01:58:28;1.23;;;0.30;;
38487;SDS011;57384;51.986;4.458;2022-10-31T02:03:59;1.15;;;0.15;;
38487;SDS011;57384;51.986;4.458;2022-10-31T02:09:34;0.95;;;0.20;;
38487;SDS011;57384;51.986;4.458;2022-10-31T02:12:21;0.80;;;0.20;;
38487;SDS011;57384;51.986;4.458;2022-10-31T02:15:08;1.35;;;0.10;;
38487;SDS011;57384;51.986;4.458;2022-10-31T02:17:59;0.70;;;0.20;;
38487;SDS011;57384;51.986;4.458;2022-10-31T02:20:49;1.38;;;0.10;;
38487;SDS011;57384;51.986;4.458;2022-10-31T02:33:51;0.85;;;0.20;;
38487;SDS011;57384;51.986;4.458;2022-10-31T02:37:21;1.58;;;0.10;;
38487;SDS011;57384;51.986;4.458;2022-10-31T02:39:55;0.60;;;0.10;;
38487;SDS011;57384;51.986;4.458;2022-10-31T02:46:25;0.95;;;0.20;;
38487;SDS011;57384;51.986;4.458;2022-10-31T02:49:12;1.05;;;0.20;;
38487;SDS011;57384;51.986;4.458;2022-10-31T02:52:18;1.73;;;0.20;;
38487;SDS011;57384;51.986;4.458;2022-10-31T02:58:09;1.17;;;0.20;;
38487;SDS011;57384;51.986;4.458;2022-10-31T03:10:27;3.05;;;0.50;;
38487;SDS011;57384;51.986;4.458;2022-10-31T03:17:19;6.45;;;0.88;;
38487;SDS011;57384;51.986;4.458;2022-10-31T03:20:44;4.03;;;0.90;;
38487;SDS011;57384;51.986;4.458;2022-10-31T03:23:43;4.18;;;0.85;;
38487;SDS011;57384;51.986;4.458;2022-10-31T03:26:39;7.50;;;0.82;;
38487;SDS011;57384;51.986;4.458;2022-10-31T03:29:28;2.78;;;1.00;;
38487;SDS011;57384;51.986;4.458;2022-10-31T03:32:19;3.88;;;0.75;;
38487;SDS011;57384;51.986;4.458;2022-10-31T03:35:20;9.60;;;1.08;;
38487;SDS011;57384;51.986;4.458;2022-10-31T03:41:02;3.72;;;0.80;;
38487;SDS011;57384;51.986;4.458;2022-10-31T03:43:52;6.13;;;1.30;;
38487;SDS011;57384;51.986;4.458;2022-10-31T03:46:47;5.60;;;1.30;;
38487;SDS011;57384;51.986;4.458;2022-10-31T03:49:34;5.30;;;1.15;;
38487;SDS011;57384;51.986;4.458;2022-10-31T03:55:17;4.95;;;1.52;;
38487;SDS011;57384;51.986;4.458;2022-10-31T04:01:24;5.88;;;1.70;;
38487;SDS011;57384;51.986;4.458;2022-10-31T04:04:23;6.15;;;1.15;;
38487;SDS011;57384;51.986;4.458;2022-10-31T04:07:09;3.67;;;0.93;;
38487;SDS011;57384;51.986;4.458;2022-10-31T04:09:57;6.70;;;1.63;;
38487;SDS011;57384;51.986;4.458;2022-10-31T04:12:51;2.85;;;0.80;;
38487;SDS011;57384;51.986;4.458;2022-10-31T04:15:51;4.20;;;0.68;;
38487;SDS011;57384;51.986;4.458;2022-10-31T04:18:38;5.55;;;0.55;;
38487;SDS011;57384;51.986;4.458;2022-10-31T04:21:28;7.45;;;1.17;;
38487;SDS011;57384;51.986;4.458;2022-10-31T04:27:04;7.45;;;0.75;;
38487;SDS011;57384;51.986;4.458;2022-10-31T04:29:48;3.58;;;0.93;;
38487;SDS011;57384;51.986;4.458;2022-10-31T04:32:32;5.45;;;0.50;;
38487;SDS011;57384;51.986;4.458;2022-10-31T04:35:22;2.38;;;0.30;;
38487;SDS011;57384;51.986;4.458;2022-10-31T04:38:09;1.65;;;0.40;;
38487;SDS011;57384;51.986;4.458;2022-10-31T04:40:53;5.53;;;0.77;;
38487;SDS011;57384;51.986;4.458;2022-10-31T04:43:37;3.42;;;0.82;;
38487;SDS011;57384;51.986;4.458;2022-10-31T04:46:21;2.47;;;0.75;;
38487;SDS011;57384;51.986;4.458;2022-10-31T04:49:05;2.70;;;0.50;;
38487;SDS011;57384;51.986;4.458;2022-10-31T04:51:53;1.83;;;0.40;;
38487;SDS011;57384;51.986;4.458;2022-10-31T04:54:37;1.90;;;0.47;;
38487;SDS011;57384;51.986;4.458;2022-10-31T04:57:21;2.85;;;0.80;;
38487;SDS011;57384;51.986;4.458;2022-10-31T05:00:08;2.83;;;0.50;;
38487;SDS011;57384;51.986;4.458;2022-10-31T05:02:55;1.55;;;0.40;;
38487;SDS011;57384;51.986;4.458;2022-10-31T05:05:52;2.77;;;0.60;;
38487;SDS011;57384;51.986;4.458;2022-10-31T05:08:40;3.40;;;0.88;;
38487;SDS011;57384;51.986;4.458;2022-10-31T05:11:27;6.85;;;0.85;;
38487;SDS011;57384;51.986;4.458;2022-10-31T05:14:11;2.22;;;0.70;;
38487;SDS011;57384;51.986;4.458;2022-10-31T05:16:55;3.83;;;0.60;;
38487;SDS011;57384;51.986;4.458;2022-10-31T05:19:39;2.47;;;0.60;;
38487;SDS011;57384;51.986;4.458;2022-10-31T05:22:26;2.90;;;0.63;;
38487;SDS011;57384;51.986;4.458;2022-10-31T05:25:20;4.80;;;0.70;;
38487;SDS011;57384;51.986;4.458;2022-10-31T05:28:09;2.33;;;0.50;;
38487;SDS011;57384;51.986;4.458;2022-10-31T05:33:44;1.67;;;0.40;;
38487;SDS011;57384;51.986;4.458;2022-10-31T05:36:28;1.60;;;0.30;;
38487;SDS011;57384;51.986;4.458;2022-10-31T05:39:12;1.45;;;0.38;;
38487;SDS011;57384;51.986;4.458;2022-10-31T05:41:56;2.92;;;0.68;;
38487;SDS011;57384;51.986;4.458;2022-10-31T05:44:40;4.07;;;0.50;;
38487;SDS011;57384;51.986;4.458;2022-10-31T05:47:24;4.90;;;0.60;;
38487;SDS011;57384;51.986;4.458;2022-10-31T05:50:09;4.60;;;1.20;;
38487;SDS011;57384;51.986;4.458;2022-10-31T05:52:54;5.10;;;0.95;;
38487;SDS011;57384;51.986;4.458;2022-10-31T05:55:46;5.20;;;1.40;;
38487;SDS011;57384;51.986;4.458;2022-10-31T05:58:30;5.90;;;1.55;;
38487;SDS011;57384;51.986;4.458;2022-10-31T06:01:14;7.57;;;2.08;;
38487;SDS011;57384;51.986;4.458;2022-10-31T06:03:58;9.73;;;2.20;;
38487;SDS011;57384;51.986;4.458;2022-10-31T06:06:43;7.13;;;1.88;;
38487;SDS011;57384;51.986;4.458;2022-10-31T06:09:27;8.30;;;1.58;;
38487;SDS011;57384;51.986;4.458;2022-10-31T06:12:11;4.32;;;1.38;;
38487;SDS011;57384;51.986;4.458;2022-10-31T06:14:55;7.55;;;1.90;;
38487;SDS011;57384;51.986;4.458;2022-10-31T06:17:40;4.22;;;1.02;;
38487;SDS011;57384;51.986;4.458;2022-10-31T06:20:24;6.25;;;1.70;;
38487;SDS011;57384;51.986;4.458;2022-10-31T06:23:08;9.48;;;1.85;;
38487;SDS011;57384;51.986;4.458;2022-10-31T06:25:52;8.07;;;1.90;;
38487;SDS011;57384;51.986;4.458;2022-10-31T06:28:36;6.50;;;2.35;;
38487;SDS011;57384;51.986;4.458;2022-10-31T06:31:23;5.90;;;2.25;;
38487;SDS011;57384;51.986;4.458;2022-10-31T06:36:52;9.00;;;2.15;;
38487;SDS011;57384;51.986;4.458;2022-10-31T06:39:39;13.50;;;2.92;;
38487;SDS011;57384;51.986;4.458;2022-10-31T06:42:23;11.40;;;2.45;;
38487;SDS011;57384;51.986;4.458;2022-10-31T06:45:10;7.72;;;2.13;;
38487;SDS011;57384;51.986;4.458;2022-10-31T06:50:39;10.68;;;2.67;;
38487;SDS011;57384;51.986;4.458;2022-10-31T06:53:23;11.40;;;2.10;;
38487;SDS011;57384;51.986;4.458;2022-10-31T06:56:07;12.25;;;2.85;;
38487;SDS011;57384;51.986;4.458;2022-10-31T06:58:51;8.40;;;2.65;;
38487;SDS011;57384;51.986;4.458;2022-10-31T07:01:38;15.57;;;2.65;;
38487;SDS011;57384;51.986;4.458;2022-10-31T07:04:23;14.60;;;2.88;;
38487;SDS011;57384;51.986;4.458;2022-10-31T07:07:07;9.32;;;2.42;;
38487;SDS011;57384;51.986;4.458;2022-10-31T07:09:54;8.40;;;2.55;;
38487;SDS011;57384;51.986;4.458;2022-10-31T07:12:41;6.03;;;2.42;;
38487;SDS011;57384;51.986;4.458;2022-10-31T07:15:26;11.82;;;3.05;;
38487;SDS011;57384;51.986;4.458;2022-10-31T07:18:11;9.52;;;3.15;;
38487;SDS011;57384;51.986;4.458;2022-10-31T07:20:56;8.52;;;3.22;;
38487;SDS011;57384;51.986;4.458;2022-10-31T07:23:40;13.20;;;3.45;;
38487;SDS011;57384;51.986;4.458;2022-10-31T07:26:30;8.27;;;2.70;;
38487;SDS011;57384;51.986;4.458;2022-10-31T07:29:14;12.65;;;3.60;;
38487;SDS011;57384;51.986;4.458;2022-10-31T07:31:58;11.98;;;4.22;;
38487;SDS011;57384;51.986;4.458;2022-10-31T07:34:42;9.98;;;3.22;;
38487;SDS011;57384;51.986;4.458;2022-10-31T07:37:27;10.35;;;3.35;;
38487;SDS011;57384;51.986;4.458;2022-10-31T07:40:11;13.52;;;3.72;;
38487;SDS011;57384;51.986;4.458;2022-10-31T07:42:57;13.07;;;2.97;;
38487;SDS011;57384;51.986;4.458;2022-10-31T07:45:48;11.43;;;3.70;;
38487;SDS011;57384;51.986;4.458;2022-10-31T07:48:37;14.75;;;4.45;;
38487;SDS011;57384;51.986;4.458;2022-10-31T07:51:21;14.98;;;3.88;;
38487;SDS011;57384;51.986;4.458;2022-10-31T07:54:05;10.57;;;4.10;;
38487;SDS011;57384;51.986;4.458;2022-10-31T07:56:49;6.80;;;2.97;;
38487;SDS011;57384;51.986;4.458;2022-10-31T07:59:33;11.00;;;3.63;;
38487;SDS011;57384;51.986;4.458;2022-10-31T08:02:18;10.57;;;4.18;;
38487;SDS011;57384;51.986;4.458;2022-10-31T08:05:02;9.70;;;3.58;;
38487;SDS011;57384;51.986;4.458;2022-10-31T08:07:46;13.00;;;4.18;;
38487;SDS011;57384;51.986;4.458;2022-10-31T08:10:30;17.17;;;5.00;;
38487;SDS011;57384;51.986;4.458;2022-10-31T08:13:14;12.20;;;3.97;;
38487;SDS011;57384;51.986;4.458;2022-10-31T08:15:58;17.05;;;4.93;;
38487;SDS011;57384;51.986;4.458;2022-10-31T08:18:50;14.07;;;4.32;;
38487;SDS011;57384;51.986;4.458;2022-10-31T08:21:49;15.70;;;4.30;;
38487;SDS011;57384;51.986;4.458;2022-10-31T08:24:37;15.05;;;4.80;;
38487;SDS011;57384;51.986;4.458;2022-10-31T08:27:24;15.05;;;5.20;;
38487;SDS011;57384;51.986;4.458;2022-10-31T08:30:11;15.00;;;4.20;;
38487;SDS011;57384;51.986;4.458;2022-10-31T08:35:53;13.20;;;5.20;;
38487;SDS011;57384;51.986;4.458;2022-10-31T08:38:41;13.38;;;4.68;;
38487;SDS011;57384;51.986;4.458;2022-10-31T08:41:25;13.45;;;5.50;;
38487;SDS011;57384;51.986;4.458;2022-10-31T08:44:09;14.68;;;5.00;;
38487;SDS011;57384;51.986;4.458;2022-10-31T08:47:06;16.38;;;5.03;;
38487;SDS011;57384;51.986;4.458;2022-10-31T08:49:52;16.98;;;5.82;;
38487;SDS011;57384;51.986;4.458;2022-10-31T08:52:36;18.02;;;5.95;;
38487;SDS011;57384;51.986;4.458;2022-10-31T08:55:35;21.75;;;5.55;;
38487;SDS011;57384;51.986;4.458;2022-10-31T08:58:24;24.42;;;6.03;;
38487;SDS011;57384;51.986;4.458;2022-10-31T09:01:11;16.25;;;4.85;;
38487;SDS011;57384;51.986;4.458;2022-10-31T09:03:59;20.95;;;5.47;;
38487;SDS011;57384;51.986;4.458;2022-10-31T09:06:46;14.43;;;4.47;;
38487;SDS011;57384;51.986;4.458;2022-10-31T09:09:30;14.52;;;4.78;;
38487;SDS011;57384;51.986;4.458;2022-10-31T09:12:14;14.20;;;5.32;;
38487;SDS011;57384;51.986;4.458;2022-10-31T09:15:01;11.80;;;4.82;;
38487;SDS011;57384;51.986;4.458;2022-10-31T09:17:46;14.68;;;4.13;;
38487;SDS011;57384;51.986;4.458;2022-10-31T09:20:31;11.38;;;4.72;;
38487;SDS011;57384;51.986;4.458;2022-10-31T09:23:20;14.75;;;3.97;;
38487;SDS011;57384;51.986;4.458;2022-10-31T09:26:08;17.02;;;4.28;;
38487;SDS011;57384;51.986;4.458;2022-10-31T09:28:52;11.02;;;3.47;;
38487;SDS011;57384;51.986;4.458;2022-10-31T09:31:40;10.75;;;3.75;;
38487;SDS011;57384;51.986;4.458;2022-10-31T09:34:27;10.18;;;3.63;;
38487;SDS011;57384;51.986;4.458;2022-10-31T09:37:15;10.75;;;3.55;;
38487;SDS011;57384;51.986;4.458;2022-10-31T09:39:58;8.18;;;2.63;;
38487;SDS011;57384;51.986;4.458;2022-10-31T09:42:52;10.88;;;3.47;;
38487;SDS011;57384;51.986;4.458;2022-10-31T09:45:51;10.00;;;3.05;;
38487;SDS011;57384;51.986;4.458;2022-10-31T09:51:53;8.15;;;3.05;;
38487;SDS011;57384;51.986;4.458;2022-10-31T09:54:45;7.25;;;2.40;;
38487;SDS011;57384;51.986;4.458;2022-10-31T09:57:42;11.02;;;2.60;;
38487;SDS011;57384;51.986;4.458;2022-10-31T10:00:27;8.80;;;2.33;;
38487;SDS011;57384;51.986;4.458;2022-10-31T10:09:00;8.80;;;2.47;;
38487;SDS011;57384;51.986;4.458;2022-10-31T10:20:31;7.03;;;2.13;;
38487;SDS011;57384;51.986;4.458;2022-10-31T10:23:46;12.43;;;2.50;;
38487;SDS011;57384;51.986;4.458;2022-10-31T10:26:40;13.68;;;2.88;;
38487;SDS011;57384;51.986;4.458;2022-10-31T10:33:02;7.75;;;2.90;;
38487;SDS011;57384;51.986;4.458;2022-10-31T10:36:06;15.55;;;2.88;;
38487;SDS011;57384;51.986;4.458;2022-10-31T10:39:45;9.38;;;2.45;;
38487;SDS011;57384;51.986;4.458;2022-10-31T10:42:14;9.57;;;2.15;;
38487;SDS011;57384;51.986;4.458;2022-10-31T10:45:16;7.57;;;1.60;;
38487;SDS011;57384;51.986;4.458;2022-10-31T10:48:27;7.75;;;1.45;;
38487;SDS011;57384;51.986;4.458;2022-10-31T10:51:27;6.10;;;1.05;;
38487;SDS011;57384;51.986;4.458;2022-10-31T11:00:47;9.95;;;2.92;;
38487;SDS011;57384;51.986;4.458;2022-10-31T11:03:34;14.10;;;3.53;;
38487;SDS011;57384;51.986;4.458;2022-10-31T11:06:22;11.88;;;3.63;;
38487;SDS011;57384;51.986;4.458;2022-10-31T11:09:16;14.05;;;3.25;;
38487;SDS011;57384;51.986;4.458;2022-10-31T11:12:08;14.15;;;4.68;;
38487;SDS011;57384;51.986;4.458;2022-10-31T11:15:17;12.50;;;4.47;;
38487;SDS011;57384;51.986;4.458;2022-10-31T11:18:12;12.75;;;3.25;;
38487;SDS011;57384;51.986;4.458;2022-10-31T11:21:17;16.58;;;5.10;;
38487;SDS011;57384;51.986;4.458;2022-10-31T11:24:14;13.82;;;4.30;;
38487;SDS011;57384;51.986;4.458;2022-10-31T11:27:13;15.05;;;5.18;;
38487;SDS011;57384;51.986;4.458;2022-10-31T11:30:06;14.70;;;4.38;;
38487;SDS011;57384;51.986;4.458;2022-10-31T11:32:55;11.45;;;4.20;;
38487;SDS011;57384;51.986;4.458;2022-10-31T11:35:40;12.32;;;5.00;;
38487;SDS011;57384;51.986;4.458;2022-10-31T11:41:25;16.50;;;3.50;;
38487;SDS011;57384;51.986;4.458;2022-10-31T11:44:16;12.93;;;4.13;;
38487;SDS011;57384;51.986;4.458;2022-10-31T11:47:03;10.60;;;3.53;;
38487;SDS011;57384;51.986;4.458;2022-10-31T11:52:52;14.10;;;4.10;;
38487;SDS011;57384;51.986;4.458;2022-10-31T11:55:40;14.10;;;4.50;;
38487;SDS011;57384;51.986;4.458;2022-10-31T11:58:28;12.75;;;4.22;;
38487;SDS011;57384;51.986;4.458;2022-10-31T12:01:23;14.25;;;4.55;;
38487;SDS011;57384;51.986;4.458;2022-10-31T12:04:41;16.73;;;5.75;;
38487;SDS011;57384;51.986;4.458;2022-10-31T12:07:36;12.20;;;4.25;;
38487;SDS011;57384;51.986;4.458;2022-10-31T12:10:26;15.77;;;5.20;;
38487;SDS011;57384;51.986;4.458;2022-10-31T12:13:42;15.23;;;6.03;;
38487;SDS011;57384;51.986;4.458;2022-10-31T12:32:56;17.30;;;5.38;;
38487;SDS011;57384;51.986;4.458;2022-10-31T12:38:59;18.20;;;6.10;;
38487;SDS011;57384;51.986;4.458;2022-10-31T12:42:05;17.85;;;6.35;;
38487;SDS011;57384;51.986;4.458;2022-10-31T12:45:07;17.05;;;5.68;;
38487;SDS011;57384;51.986;4.458;2022-10-31T12:48:20;20.05;;;6.82;;
38487;SDS011;57384;51.986;4.458;2022-10-31T13:01:23;9.63;;;2.75;;
38487;SDS011;57384;51.986;4.458;2022-10-31T13:07:36;20.45;;;6.50;;
38487;SDS011;57384;51.986;4.458;2022-10-31T13:10:35;17.88;;;6.18;;
38487;SDS011;57384;51.986;4.458;2022-10-31T13:13:27;21.55;;;7.75;;
38487;SDS011;57384;51.986;4.458;2022-10-31T13:16:28;16.05;;;6.20;;
38487;SDS011;57384;51.986;4.458;2022-10-31T13:19:59;16.42;;;5.75;;
38487;SDS011;57384;51.986;4.458;2022-10-31T13:23:10;18.38;;;6.60;;
38487;SDS011;57384;51.986;4.458;2022-10-31T13:26:28;12.20;;;4.95;;
38487;SDS011;57384;51.986;4.458;2022-10-31T13:32:03;17.75;;;6.32;;
38487;SDS011;57384;51.986;4.458;2022-10-31T13:34:51;16.80;;;6.40;;
38487;SDS011;57384;51.986;4.458;2022-10-31T13:37:46;14.35;;;5.38;;
38487;SDS011;57384;51.986;4.458;2022-10-31T13:46:44;16.80;;;5.40;;
38487;SDS011;57384;51.986;4.458;2022-10-31T13:52:22;23.38;;;7.45;;
38487;SDS011;57384;51.986;4.458;2022-10-31T13:55:19;15.82;;;5.78;;
38487;SDS011;57384;51.986;4.458;2022-10-31T13:58:28;18.15;;;7.38;;
38487;SDS011;57384;51.986;4.458;2022-10-31T14:01:20;19.17;;;8.15;;
38487;SDS011;57384;51.986;4.458;2022-10-31T14:04:19;26.23;;;8.68;;
38487;SDS011;57384;51.986;4.458;2022-10-31T14:07:10;25.05;;;9.10;;
38487;SDS011;57384;51.986;4.458;2022-10-31T14:10:01;24.83;;;8.60;;
38487;SDS011;57384;51.986;4.458;2022-10-31T14:13:07;18.85;;;7.75;;
38487;SDS011;57384;51.986;4.458;2022-10-31T14:16:24;17.08;;;6.05;;
38487;SDS011;57384;51.986;4.458;2022-10-31T14:19:19;19.35;;;6.45;;
38487;SDS011;57384;51.986;4.458;2022-10-31T14:22:18;20.10;;;8.15;;
38487;SDS011;57384;51.986;4.458;2022-10-31T14:28:34;18.92;;;6.93;;
38487;SDS011;57384;51.986;4.458;2022-10-31T14:34:42;19.90;;;7.50;;
38487;SDS011;57384;51.986;4.458;2022-10-31T14:40:52;22.20;;;8.13;;
38487;SDS011;57384;51.986;4.458;2022-10-31T14:52:53;23.35;;;8.52;;
38487;SDS011;57384;51.986;4.458;2022-10-31T14:55:42;15.52;;;5.82;;
38487;SDS011;57384;51.986;4.458;2022-10-31T14:59:05;15.98;;;5.47;;
38487;SDS011;57384;51.986;4.458;2022-10-31T15:01:47;26.38;;;8.25;;
38487;SDS011;57384;51.986;4.458;2022-10-31T15:04:37;23.00;;;8.82;;
38487;SDS011;57384;51.986;4.458;2022-10-31T15:07:25;27.80;;;8.32;;
38487;SDS011;57384;51.986;4.458;2022-10-31T15:10:21;18.85;;;7.10;;
38487;SDS011;57384;51.986;4.458;2022-10-31T15:13:17;22.52;;;9.55;;
38487;SDS011;57384;51.986;4.458;2022-10-31T15:16:07;22.88;;;8.80;;
38487;SDS011;57384;51.986;4.458;2022-10-31T15:18:58;20.02;;;7.47;;
38487;SDS011;57384;51.986;4.458;2022-10-31T15:21:54;26.65;;;8.90;;
38487;SDS011;57384;51.986;4.458;2022-10-31T15:24:39;23.70;;;7.55;;
38487;SDS011;57384;51.986;4.458;2022-10-31T15:27:26;21.45;;;9.73;;
38487;SDS011;57384;51.986;4.458;2022-10-31T15:30:20;23.45;;;8.52;;
38487;SDS011;57384;51.986;4.458;2022-10-31T15:36:21;31.60;;;9.93;;
38487;SDS011;57384;51.986;4.458;2022-10-31T15:39:10;20.92;;;8.50;;
38487;SDS011;57384;51.986;4.458;2022-10-31T15:41:58;21.00;;;8.18;;
38487;SDS011;57384;51.986;4.458;2022-10-31T15:44:43;27.55;;;9.73;;
38487;SDS011;57384;51.986;4.458;2022-10-31T15:47:30;28.13;;;9.18;;
38487;SDS011;57384;51.986;4.458;2022-10-31T15:53:22;26.38;;;8.95;;
38487;SDS011;57384;51.986;4.458;2022-10-31T15:59:16;18.35;;;6.05;;
38487;SDS011;57384;51.986;4.458;2022-10-31T16:02:09;21.52;;;8.35;;
38487;SDS011;57384;51.986;4.458;2022-10-31T16:04:58;20.38;;;7.80;;
38487;SDS011;57384;51.986;4.458;2022-10-31T16:07:48;16.98;;;6.45;;
38487;SDS011;57384;51.986;4.458;2022-10-31T16:10:34;28.70;;;8.00;;
38487;SDS011;57384;51.986;4.458;2022-10-31T16:13:21;17.58;;;7.15;;
38487;SDS011;57384;51.986;4.458;2022-10-31T16:16:11;25.05;;;8.15;;
38487;SDS011;57384;51.986;4.458;2022-10-31T16:19:00;20.80;;;7.75;;
38487;SDS011;57384;51.986;4.458;2022-10-31T16:21:46;21.02;;;6.68;;
38487;SDS011;57384;51.986;4.458;2022-10-31T16:24:37;25.85;;;8.27;;
38487;SDS011;57384;51.986;4.458;2022-10-31T16:27:33;23.67;;;7.70;;
38487;SDS011;57384;51.986;4.458;2022-10-31T16:30:30;23.45;;;8.05;;
38487;SDS011;57384;51.986;4.458;2022-10-31T16:36:31;21.13;;;8.02;;
38487;SDS011;57384;51.986;4.458;2022-10-31T16:39:16;20.13;;;7.78;;
38487;SDS011;57384;51.986;4.458;2022-10-31T16:44:47;27.27;;;8.13;;
38487;SDS011;57384;51.986;4.458;2022-10-31T16:47:39;22.30;;;7.63;;
38487;SDS011;57384;51.986;4.458;2022-10-31T16:50:26;13.80;;;6.72;;
38487;SDS011;57384;51.986;4.458;2022-10-31T16:53:11;20.67;;;8.55;;
38487;SDS011;57384;51.986;4.458;2022-10-31T16:55:57;19.17;;;6.32;;
38487;SDS011;57384;51.986;4.458;2022-10-31T16:58:45;16.85;;;6.60;;
38487;SDS011;57384;51.986;4.458;2022-10-31T17:01:29;20.90;;;7.07;;
38487;SDS011;57384;51.986;4.458;2022-10-31T17:04:18;22.08;;;7.50;;
38487;SDS011;57384;51.986;4.458;2022-10-31T17:07:02;19.52;;;5.88;;
38487;SDS011;57384;51.986;4.458;2022-10-31T17:09:48;22.10;;;6.47;;
38487;SDS011;57384;51.986;4.458;2022-10-31T17:12:35;20.58;;;5.90;;
38487;SDS011;57384;51.986;4.458;2022-10-31T17:15:24;19.92;;;5.95;;
38487;SDS011;57384;51.986;4.458;2022-10-31T17:18:11;15.82;;;6.28;;
38487;SDS011;57384;51.986;4.458;2022-10-31T17:20:57;19.40;;;7.17;;
38487;SDS011;57384;51.986;4.458;2022-10-31T17:23:43;18.70;;;6.60;;
38487;SDS011;57384;51.986;4.458;2022-10-31T17:26:35;14.07;;;5.45;;
38487;SDS011;57384;51.986;4.458;2022-10-31T17:29:23;15.25;;;5.70;;
38487;SDS011;57384;51.986;4.458;2022-10-31T17:32:10;16.80;;;5.38;;
38487;SDS011;57384;51.986;4.458;2022-10-31T17:34:54;14.82;;;5.18;;
38487;SDS011;57384;51.986;4.458;2022-10-31T17:37:39;16.48;;;5.10;;
38487;SDS011;57384;51.986;4.458;2022-10-31T17:40:25;17.65;;;5.38;;
38487;SDS011;57384;51.986;4.458;2022-10-31T17:43:09;17.02;;;4.85;;
38487;SDS011;57384;51.986;4.458;2022-10-31T17:45:57;11.00;;;4.35;;
38487;SDS011;57384;51.986;4.458;2022-10-31T17:48:42;14.70;;;4.50;;
38487;SDS011;57384;51.986;4.458;2022-10-31T17:51:26;22.40;;;5.63;;
38487;SDS011;57384;51.986;4.458;2022-10-31T17:54:10;17.02;;;4.70;;
38487;SDS011;57384;51.986;4.458;2022-10-31T17:56:54;11.88;;;4.40;;
38487;SDS011;57384;51.986;4.458;2022-10-31T17:59:38;16.27;;;5.05;;
38487;SDS011;57384;51.986;4.458;2022-10-31T18:02:22;20.90;;;4.90;;
38487;SDS011;57384;51.986;4.458;2022-10-31T18:05:09;16.38;;;6.20;;
38487;SDS011;57384;51.986;4.458;2022-10-31T18:07:55;21.85;;;5.72;;
38487;SDS011;57384;51.986;4.458;2022-10-31T18:10:39;15.23;;;5.20;;
38487;SDS011;57384;51.986;4.458;2022-10-31T18:13:23;14.00;;;4.93;;
38487;SDS011;57384;51.986;4.458;2022-10-31T18:16:08;11.85;;;4.68;;
38487;SDS011;57384;51.986;4.458;2022-10-31T18:18:57;14.82;;;4.47;;
38487;SDS011;57384;51.986;4.458;2022-10-31T18:21:43;16.27;;;5.65;;
38487;SDS011;57384;51.986;4.458;2022-10-31T18:24:31;14.65;;;4.53;;
38487;SDS011;57384;51.986;4.458;2022-10-31T18:27:15;16.17;;;5.15;;
38487;SDS011;57384;51.986;4.458;2022-10-31T18:29:59;15.63;;;4.10;;
38487;SDS011;57384;51.986;4.458;2022-10-31T18:32:43;19.67;;;4.43;;
38487;SDS011;57384;51.986;4.458;2022-10-31T18:35:27;16.77;;;4.50;;
38487;SDS011;57384;51.986;4.458;2022-10-31T18:38:11;12.25;;;4.72;;
38487;SDS011;57384;51.986;4.458;2022-10-31T18:40:55;14.57;;;5.05;;
38487;SDS011;57384;51.986;4.458;2022-10-31T18:43:39;15.15;;;3.97;;
38487;SDS011;57384;51.986;4.458;2022-10-31T18:46:24;15.35;;;4.53;;
38487;SDS011;57384;51.986;4.458;2022-10-31T18:49:09;20.38;;;5.43;;
38487;SDS011;57384;51.986;4.458;2022-10-31T18:51:54;19.92;;;4.68;;
38487;SDS011;57384;51.986;4.458;2022-10-31T18:57:34;12.23;;;3.75;;
38487;SDS011;57384;51.986;4.458;2022-10-31T19:00:25;20.02;;;4.85;;
38487;SDS011;57384;51.986;4.458;2022-10-31T19:03:09;9.95;;;3.28;;
38487;SDS011;57384;51.986;4.458;2022-10-31T19:05:56;16.92;;;4.13;;
38487;SDS011;57384;51.986;4.458;2022-10-31T19:08:41;10.90;;;3.13;;
38487;SDS011;57384;51.986;4.458;2022-10-31T19:11:31;14.65;;;4.53;;
38487;SDS011;57384;51.986;4.458;2022-10-31T19:14:17;16.52;;;4.20;;
38487;SDS011;57384;51.986;4.458;2022-10-31T19:17:41;17.27;;;4.13;;
38487;SDS011;57384;51.986;4.458;2022-10-31T19:20:48;13.68;;;4.22;;
38487;SDS011;57384;51.986;4.458;2022-10-31T19:23:39;8.65;;;2.78;;
38487;SDS011;57384;51.986;4.458;2022-10-31T19:26:36;11.55;;;3.00;;
38487;SDS011;57384;51.986;4.458;2022-10-31T19:29:22;17.05;;;4.07;;
38487;SDS011;57384;51.986;4.458;2022-10-31T19:32:09;12.20;;;3.10;;
38487;SDS011;57384;51.986;4.458;2022-10-31T19:34:55;10.00;;;2.72;;
38487;SDS011;57384;51.986;4.458;2022-10-31T19:37:39;15.32;;;3.80;;
38487;SDS011;57384;51.986;4.458;2022-10-31T19:40:27;10.32;;;3.25;;
38487;SDS011;57384;51.986;4.458;2022-10-31T19:43:17;8.45;;;2.55;;
38487;SDS011;57384;51.986;4.458;2022-10-31T19:46:04;12.15;;;2.95;;
38487;SDS011;57384;51.986;4.458;2022-10-31T19:48:55;11.80;;;2.97;;
38487;SDS011;57384;51.986;4.458;2022-10-31T19:51:57;5.85;;;2.10;;
38487;SDS011;57384;51.986;4.458;2022-10-31T19:55:03;11.52;;;2.90;;
38487;SDS011;57384;51.986;4.458;2022-10-31T19:57:46;7.15;;;2.15;;